F/V Men Gwen — FGPU — position and weather

sailwx.info

Track history (hours):
 
Tides and Currents Weather Stations Pressure Air Temp Water Temp Dewpoint Dewpoint Depression Visibility Wind Speed Wind Dir Waves Ship Positions

F/V Men Gwen

Last reported at 2017-Nov-20 00:30 UTC. Time now 2017-Nov-22 18:40 UTC.
Position N 47°15' W 003°30'.

Length 18 m.

Type: Fishing. MMSI: 227481000.

Date/timePositionNaut miles runAvg speedWind from/ knotsBaromVisibWave heightAir tempDewpointWater temp
2017-Nov-20 00:30N 47°15' W 003°30'3 3.5
2017-Nov-19 23:43N 47°14' W 003°27'2 2.8
2017-Nov-19 22:57N 47°14' W 003°30'1 1.8
2017-Nov-19 22:30N 47°15' W 003°30'1 0.8
2017-Nov-19 21:01N 47°14' W 003°30'1 3.7
2017-Nov-19 20:43N 47°13' W 003°28'45 1.6
2017-Nov-18 16:57N 46°30' W 003°10'1 2.6
2017-Nov-18 16:27N 46°29' W 003°10'2 3.4
2017-Nov-18 15:54N 46°27' W 003°08'2 3.6
2017-Nov-18 15:22N 46°25' W 003°07'2 3.2
2017-Nov-18 14:44N 46°25' W 003°04'54 2.2
2017-Nov-17 13:58N 47°18' W 003°21'4 8.9
2017-Nov-17 13:30N 47°22' W 003°21'4 8.8
2017-Nov-17 13:00N 47°27' W 003°21'4 8.9
2017-Nov-17 12:30N 47°31' W 003°21'4 9.0
2017-Nov-17 12:00N 47°36' W 003°22'4 8.9
2017-Nov-17 11:30N 47°40' W 003°22'3 7.0
2017-Nov-17 11:00N 47°44' W 003°22'0 0.0
2017-Nov-17 08:39N 47°44' W 003°22'0 3.3
2017-Nov-17 08:30N 47°43' W 003°22'4 8.4
2017-Nov-17 08:00N 47°39' W 003°23'4 8.6
2017-Nov-17 07:30N 47°35' W 003°25'4 8.2
2017-Nov-17 07:00N 47°32' W 003°28'4 8.4
2017-Nov-17 06:30N 47°29' W 003°32'2 4.6
2017-Nov-17 06:01N 47°27' W 003°34'2 3.7
2017-Nov-17 05:30N 47°25' W 003°32'2 3.7
2017-Nov-17 05:00N 47°24' W 003°30'2 3.6
2017-Nov-17 04:30N 47°22' W 003°30'2 3.5
2017-Nov-17 04:00N 47°21' W 003°29'2 3.5
2017-Nov-17 03:27N 47°22' W 003°27'2 3.9
2017-Nov-17 03:00N 47°24' W 003°27'2 4.0
2017-Nov-17 02:30N 47°26' W 003°28'3 5.3
2017-Nov-17 02:00N 47°29' W 003°28'4 8.5
2017-Nov-17 01:30N 47°32' W 003°25'4 8.7
2017-Nov-17 01:01N 47°36' W 003°23'4 8.9
2017-Nov-17 00:30N 47°41' W 003°22'3 5.8
2017-Nov-17 00:00N 47°44' W 003°22'0 0.0
2017-Nov-16 23:30N 47°44' W 003°22'2 5.0
2017-Nov-16 23:00N 47°41' W 003°22'5 9.2
2017-Nov-16 22:31N 47°37' W 003°22'5 9.1
2017-Nov-16 22:00N 47°32' W 003°23'5 9.1
2017-Nov-16 21:30N 47°28' W 003°23'5 9.1
2017-Nov-16 21:00N 47°23' W 003°24'5 9.1
2017-Nov-16 20:28N 47°18' W 003°24'10 6.0
2017-Nov-16 18:51N 47°09' W 003°24'8 3.8
2017-Nov-16 16:53N 47°01' W 003°23'3 3.8
2017-Nov-16 15:58N 46°58' W 003°21'2 3.0
2017-Nov-16 15:28N 46°56' W 003°21'3 2.8
2017-Nov-16 14:28N 46°54' W 003°20'2 3.4
2017-Nov-16 13:50N 46°56' W 003°20'2 2.6
2017-Nov-16 12:58N 46°54' W 003°18'4 3.5
2017-Nov-16 11:45N 46°50' W 003°16'2 3.8
2017-Nov-16 11:13N 46°49' W 003°14'1 0.6
2017-Nov-16 10:14N 46°49' W 003°14'0 0.1
2017-Nov-16 08:57N 46°49' W 003°14'1 0.6
2017-Nov-16 07:57N 46°50' W 003°14'2 3.3
2017-Nov-16 07:29N 46°48' W 003°13'5 0.6
2017-Nov-15 23:38N 46°44' W 003°16'4 3.4
2017-Nov-15 22:34N 46°46' W 003°21'0 2.2
2017-Nov-15 22:21N 46°45' W 003°22'1 4.1
2017-Nov-15 22:00N 46°44' W 003°22'2 3.2
2017-Nov-15 21:30N 46°44' W 003°19'4 1.6
2017-Nov-15 19:19N 46°44' W 003°24'2 3.4
2017-Nov-15 18:52N 46°45' W 003°27'9 1.1
2017-Nov-15 10:07N 46°49' W 003°14'0 3.7
2017-Nov-15 10:00N 46°49' W 003°14'1 2.4
2017-Nov-15 09:30N 46°49' W 003°12'1 0.8
2017-Nov-15 08:26N 46°48' W 003°13'2 0.5
2017-Nov-15 03:51N 46°47' W 003°15'1 3.7
2017-Nov-15 03:29N 46°46' W 003°13'23 1.8
2017-Nov-14 14:22N 47°08' W 003°03'2 0.2
2017-Nov-14 07:08N 47°08' W 003°05'1 3.4
2017-Nov-14 06:57N 47°09' W 003°05'2 3.1
2017-Nov-14 06:24N 47°10' W 003°03'1 3.4
2017-Nov-14 05:59N 47°11' W 003°01'2 3.4
2017-Nov-14 05:28N 47°12' W 003°01'4 6.8
2017-Nov-14 04:58N 47°16' W 002°60'4 8.2
2017-Nov-14 04:30N 47°19' W 003°02'4 8.4
2017-Nov-14 04:01N 47°23' W 003°06'4 8.0
2017-Nov-14 03:30N 47°26' W 003°09'4 8.3
2017-Nov-14 03:00N 47°30' W 003°12'4 8.5
2017-Nov-14 02:30N 47°33' W 003°15'4 8.5
2017-Nov-14 02:00N 47°37' W 003°19'4 8.7
2017-Nov-14 01:30N 47°41' W 003°22'3 6.4
2017-Nov-14 01:00N 47°44' W 003°22'  
2017-Nov-11 00:05N 47°44' W 003°22'0 0.1
2017-Nov-11 00:00N 47°44' W 003°22'0 0.0
2017-Nov-10 23:30N 47°44' W 003°22'0 0.0
2017-Nov-10 23:00N 47°44' W 003°22'0 0.0
2017-Nov-10 22:30N 47°44' W 003°22'0 0.0
2017-Nov-10 22:00N 47°44' W 003°22'0 0.0
2017-Nov-10 21:30N 47°44' W 003°22'0 0.0
2017-Nov-10 21:00N 47°44' W 003°22'0 0.0
2017-Nov-10 20:30N 47°44' W 003°22'0 0.2
2017-Nov-10 20:00N 47°44' W 003°22'1 2.8
2017-Nov-10 19:30N 47°42' W 003°22'4 7.6
2017-Nov-10 19:00N 47°38' W 003°22'4 8.2
2017-Nov-10 18:30N 47°34' W 003°21'4 8.0
2017-Nov-10 18:00N 47°30' W 003°20'4 7.9
2017-Nov-10 17:30N 47°27' W 003°19'2 3.9
2017-Nov-10 17:00N 47°25' W 003°19'2 3.3
2017-Nov-10 16:30N 47°24' W 003°21'1 1.5
2017-Nov-10 16:00N 47°25' W 003°22'1 2.2
2017-Nov-10 15:30N 47°25' W 003°20'2 3.4
2017-Nov-10 15:00N 47°25' W 003°23'1 2.5
2017-Nov-10 14:30N 47°25' W 003°21'1 1.4
2017-Nov-10 14:00N 47°25' W 003°21'1 2.7
2017-Nov-10 13:30N 47°24' W 003°23'1 1.9
2017-Nov-10 13:00N 47°24' W 003°22'1 2.0
2017-Nov-10 12:30N 47°25' W 003°21'1 2.8
2017-Nov-10 12:00N 47°24' W 003°22'1 2.8
2017-Nov-10 11:30N 47°25' W 003°20'2 3.4
2017-Nov-10 11:00N 47°25' W 003°23'1 2.2
2017-Nov-10 10:30N 47°24' W 003°22'1 2.3
2017-Nov-10 10:01N 47°25' W 003°20'1 2.7
2017-Nov-10 09:30N 47°25' W 003°18'1 2.9
2017-Nov-10 09:00N 47°25' W 003°16'1 2.8
2017-Nov-10 08:30N 47°26' W 003°15'2 3.8
2017-Nov-10 08:00N 47°26' W 003°17'1 2.9
2017-Nov-10 07:31N 47°25' W 003°19'1 2.8
2017-Nov-10 07:00N 47°24' W 003°17'1 1.8
2017-Nov-10 06:30N 47°24' W 003°16'1 1.9
2017-Nov-10 06:00N 47°25' W 003°16'2 3.6
2017-Nov-10 05:30N 47°25' W 003°18'2 3.7
2017-Nov-10 05:01N 47°26' W 003°21'4 8.8
2017-Nov-10 04:30N 47°30' W 003°21'4 8.7
2017-Nov-10 04:00N 47°35' W 003°22'4 8.9
2017-Nov-10 03:30N 47°39' W 003°22'4 8.9
2017-Nov-10 03:00N 47°44' W 003°22'0 0.3
2017-Nov-10 02:30N 47°44' W 003°22'1 2.4
2017-Nov-10 02:01N 47°43' W 003°22'4 8.1
2017-Nov-10 01:30N 47°39' W 003°21'4 8.5
2017-Nov-10 01:00N 47°35' W 003°19'4 8.7
2017-Nov-10 00:30N 47°31' W 003°16'  
Track history (hours):
 
Tides and Currents Weather Stations Pressure Air Temp Water Temp Dewpoint Dewpoint Depression Visibility Wind Speed Wind Dir Waves Ship Positions

F/V Men Gwen

Last reported at 2017-Nov-20 00:30 UTC. Time now 2017-Nov-22 18:40 UTC.
Position N 47°15' W 003°30'.

Length 18 m.

Type: Fishing. MMSI: 227481000.

Date/timePositionNaut miles runAvg speedWind from/ knotsBaromVisibWave heightAir tempDewpointWater temp
2017-Nov-20 00:30N 47°15' W 003°30'3 3.5
2017-Nov-19 23:43N 47°14' W 003°27'2 2.8
2017-Nov-19 22:57N 47°14' W 003°30'1 1.8
2017-Nov-19 22:30N 47°15' W 003°30'1 0.8
2017-Nov-19 21:01N 47°14' W 003°30'1 3.7
2017-Nov-19 20:43N 47°13' W 003°28'45 1.6
2017-Nov-18 16:57N 46°30' W 003°10'1 2.6
2017-Nov-18 16:27N 46°29' W 003°10'2 3.4
2017-Nov-18 15:54N 46°27' W 003°08'2 3.6
2017-Nov-18 15:22N 46°25' W 003°07'2 3.2
2017-Nov-18 14:44N 46°25' W 003°04'54 2.2
2017-Nov-17 13:58N 47°18' W 003°21'4 8.9
2017-Nov-17 13:30N 47°22' W 003°21'4 8.8
2017-Nov-17 13:00N 47°27' W 003°21'4 8.9
2017-Nov-17 12:30N 47°31' W 003°21'4 9.0
2017-Nov-17 12:00N 47°36' W 003°22'4 8.9
2017-Nov-17 11:30N 47°40' W 003°22'3 7.0
2017-Nov-17 11:00N 47°44' W 003°22'0 0.0
2017-Nov-17 08:39N 47°44' W 003°22'0 3.3
2017-Nov-17 08:30N 47°43' W 003°22'4 8.4
2017-Nov-17 08:00N 47°39' W 003°23'4 8.6
2017-Nov-17 07:30N 47°35' W 003°25'4 8.2
2017-Nov-17 07:00N 47°32' W 003°28'4 8.4
2017-Nov-17 06:30N 47°29' W 003°32'2 4.6
2017-Nov-17 06:01N 47°27' W 003°34'2 3.7
2017-Nov-17 05:30N 47°25' W 003°32'2 3.7
2017-Nov-17 05:00N 47°24' W 003°30'2 3.6
2017-Nov-17 04:30N 47°22' W 003°30'2 3.5
2017-Nov-17 04:00N 47°21' W 003°29'2 3.5
2017-Nov-17 03:27N 47°22' W 003°27'2 3.9
2017-Nov-17 03:00N 47°24' W 003°27'2 4.0
2017-Nov-17 02:30N 47°26' W 003°28'3 5.3
2017-Nov-17 02:00N 47°29' W 003°28'4 8.5
2017-Nov-17 01:30N 47°32' W 003°25'4 8.7
2017-Nov-17 01:01N 47°36' W 003°23'4 8.9
2017-Nov-17 00:30N 47°41' W 003°22'3 5.8
2017-Nov-17 00:00N 47°44' W 003°22'0 0.0
2017-Nov-16 23:30N 47°44' W 003°22'2 5.0
2017-Nov-16 23:00N 47°41' W 003°22'5 9.2
2017-Nov-16 22:31N 47°37' W 003°22'5 9.1
2017-Nov-16 22:00N 47°32' W 003°23'5 9.1
2017-Nov-16 21:30N 47°28' W 003°23'5 9.1
2017-Nov-16 21:00N 47°23' W 003°24'5 9.1
2017-Nov-16 20:28N 47°18' W 003°24'10 6.0
2017-Nov-16 18:51N 47°09' W 003°24'8 3.8
2017-Nov-16 16:53N 47°01' W 003°23'3 3.8
2017-Nov-16 15:58N 46°58' W 003°21'2 3.0
2017-Nov-16 15:28N 46°56' W 003°21'3 2.8
2017-Nov-16 14:28N 46°54' W 003°20'2 3.4
2017-Nov-16 13:50N 46°56' W 003°20'2 2.6
2017-Nov-16 12:58N 46°54' W 003°18'4 3.5
2017-Nov-16 11:45N 46°50' W 003°16'2 3.8
2017-Nov-16 11:13N 46°49' W 003°14'1 0.6
2017-Nov-16 10:14N 46°49' W 003°14'0 0.1
2017-Nov-16 08:57N 46°49' W 003°14'1 0.6
2017-Nov-16 07:57N 46°50' W 003°14'2 3.3
2017-Nov-16 07:29N 46°48' W 003°13'5 0.6
2017-Nov-15 23:38N 46°44' W 003°16'4 3.4
2017-Nov-15 22:34N 46°46' W 003°21'0 2.2
2017-Nov-15 22:21N 46°45' W 003°22'1 4.1
2017-Nov-15 22:00N 46°44' W 003°22'2 3.2
2017-Nov-15 21:30N 46°44' W 003°19'4 1.6
2017-Nov-15 19:19N 46°44' W 003°24'2 3.4
2017-Nov-15 18:52N 46°45' W 003°27'9 1.1
2017-Nov-15 10:07N 46°49' W 003°14'0 3.7
2017-Nov-15 10:00N 46°49' W 003°14'1 2.4
2017-Nov-15 09:30N 46°49' W 003°12'1 0.8
2017-Nov-15 08:26N 46°48' W 003°13'2 0.5
2017-Nov-15 03:51N 46°47' W 003°15'1 3.7
2017-Nov-15 03:29N 46°46' W 003°13'23 1.8
2017-Nov-14 14:22N 47°08' W 003°03'2 0.2
2017-Nov-14 07:08N 47°08' W 003°05'1 3.4
2017-Nov-14 06:57N 47°09' W 003°05'2 3.1
2017-Nov-14 06:24N 47°10' W 003°03'1 3.4
2017-Nov-14 05:59N 47°11' W 003°01'2 3.4
2017-Nov-14 05:28N 47°12' W 003°01'4 6.8
2017-Nov-14 04:58N 47°16' W 002°60'4 8.2
2017-Nov-14 04:30N 47°19' W 003°02'4 8.4
2017-Nov-14 04:01N 47°23' W 003°06'4 8.0
2017-Nov-14 03:30N 47°26' W 003°09'4 8.3
2017-Nov-14 03:00N 47°30' W 003°12'4 8.5
2017-Nov-14 02:30N 47°33' W 003°15'4 8.5
2017-Nov-14 02:00N 47°37' W 003°19'4 8.7
2017-Nov-14 01:30N 47°41' W 003°22'3 6.4
2017-Nov-14 01:00N 47°44' W 003°22'  
2017-Nov-11 00:05N 47°44' W 003°22'0 0.1
2017-Nov-11 00:00N 47°44' W 003°22'0 0.0
2017-Nov-10 23:30N 47°44' W 003°22'0 0.0
2017-Nov-10 23:00N 47°44' W 003°22'0 0.0
2017-Nov-10 22:30N 47°44' W 003°22'0 0.0
2017-Nov-10 22:00N 47°44' W 003°22'0 0.0
2017-Nov-10 21:30N 47°44' W 003°22'0 0.0
2017-Nov-10 21:00N 47°44' W 003°22'0 0.0
2017-Nov-10 20:30N 47°44' W 003°22'0 0.2
2017-Nov-10 20:00N 47°44' W 003°22'1 2.8
2017-Nov-10 19:30N 47°42' W 003°22'4 7.6
2017-Nov-10 19:00N 47°38' W 003°22'4 8.2
2017-Nov-10 18:30N 47°34' W 003°21'4 8.0
2017-Nov-10 18:00N 47°30' W 003°20'4 7.9
2017-Nov-10 17:30N 47°27' W 003°19'2 3.9
2017-Nov-10 17:00N 47°25' W 003°19'2 3.3
2017-Nov-10 16:30N 47°24' W 003°21'1 1.5
2017-Nov-10 16:00N 47°25' W 003°22'1 2.2
2017-Nov-10 15:30N 47°25' W 003°20'2 3.4
2017-Nov-10 15:00N 47°25' W 003°23'1 2.5
2017-Nov-10 14:30N 47°25' W 003°21'1 1.4
2017-Nov-10 14:00N 47°25' W 003°21'1 2.7
2017-Nov-10 13:30N 47°24' W 003°23'1 1.9
2017-Nov-10 13:00N 47°24' W 003°22'1 2.0
2017-Nov-10 12:30N 47°25' W 003°21'1 2.8
2017-Nov-10 12:00N 47°24' W 003°22'1 2.8
2017-Nov-10 11:30N 47°25' W 003°20'2 3.4
2017-Nov-10 11:00N 47°25' W 003°23'1 2.2
2017-Nov-10 10:30N 47°24' W 003°22'1 2.3
2017-Nov-10 10:01N 47°25' W 003°20'1 2.7
2017-Nov-10 09:30N 47°25' W 003°18'1 2.9
2017-Nov-10 09:00N 47°25' W 003°16'1 2.8
2017-Nov-10 08:30N 47°26' W 003°15'2 3.8
2017-Nov-10 08:00N 47°26' W 003°17'1 2.9
2017-Nov-10 07:31N 47°25' W 003°19'1 2.8
2017-Nov-10 07:00N 47°24' W 003°17'1 1.8
2017-Nov-10 06:30N 47°24' W 003°16'1 1.9
2017-Nov-10 06:00N 47°25' W 003°16'2 3.6
2017-Nov-10 05:30N 47°25' W 003°18'2 3.7
2017-Nov-10 05:01N 47°26' W 003°21'4 8.8
2017-Nov-10 04:30N 47°30' W 003°21'4 8.7
2017-Nov-10 04:00N 47°35' W 003°22'4 8.9
2017-Nov-10 03:30N 47°39' W 003°22'4 8.9
2017-Nov-10 03:00N 47°44' W 003°22'0 0.3
2017-Nov-10 02:30N 47°44' W 003°22'1 2.4
2017-Nov-10 02:01N 47°43' W 003°22'4 8.1
2017-Nov-10 01:30N 47°39' W 003°21'4 8.5
2017-Nov-10 01:00N 47°35' W 003°19'4 8.7
2017-Nov-10 00:30N 47°31' W 003°16'  

Dump ship's entire track history